createdAt,value
2017-03-30T00:00:14.450Z,0
2017-03-30T00:01:14.449Z,0
2017-03-30T00:02:14.138Z,0
2017-03-30T00:03:14.426Z,0
2017-03-30T00:04:14.131Z,0
2017-03-30T00:05:14.420Z,0
2017-03-30T00:06:14.407Z,0
2017-03-30T00:07:14.098Z,0
2017-03-30T00:08:14.400Z,0
2017-03-30T00:09:14.397Z,0
2017-03-30T00:10:13.775Z,0
2017-03-30T00:11:14.374Z,0
2017-03-30T00:12:14.368Z,0
2017-03-30T00:13:14.365Z,0
2017-03-30T00:14:14.358Z,0
2017-03-30T00:15:14.046Z,0
2017-03-30T00:16:14.342Z,0
2017-03-30T00:17:14.334Z,0
2017-03-30T00:18:14.327Z,0
2017-03-30T00:19:14.325Z,0
2017-03-30T00:20:14.328Z,0
2017-03-30T00:21:14.305Z,0
2017-03-30T00:22:14.305Z,0
2017-03-30T00:23:14.297Z,0
2017-03-30T00:24:13.994Z,0
2017-03-30T00:25:14.285Z,0
2017-03-30T00:26:14.280Z,0
2017-03-30T00:27:14.271Z,0
2017-03-30T00:28:13.967Z,0
2017-03-30T00:29:14.253Z,0
2017-03-30T00:30:13.643Z,0
2017-03-30T00:31:14.247Z,0
2017-03-30T00:32:14.244Z,0
2017-03-30T00:33:14.233Z,0
2017-03-30T00:34:14.223Z,0
2017-03-30T00:35:14.217Z,0
2017-03-30T00:36:14.212Z,0
2017-03-30T00:37:13.902Z,0
2017-03-30T00:38:14.196Z,0
2017-03-30T00:39:13.911Z,0
2017-03-30T00:40:14.194Z,0
2017-03-30T00:41:14.188Z,0
2017-03-30T00:42:14.175Z,0
2017-03-30T00:43:14.167Z,0
2017-03-30T00:44:13.857Z,0
2017-03-30T00:45:14.155Z,0
2017-03-30T00:46:13.848Z,0
2017-03-30T00:47:13.836Z,0
2017-03-30T00:48:13.827Z,0
2017-03-30T00:49:14.149Z,0
2017-03-30T00:50:13.819Z,0
2017-03-30T00:51:14.113Z,0
2017-03-30T00:52:14.105Z,0
2017-03-30T00:53:13.798Z,0
2017-03-30T00:54:14.088Z,0
2017-03-30T00:55:13.785Z,0
2017-03-30T00:56:14.077Z,0
2017-03-30T00:57:14.073Z,0
2017-03-30T00:58:13.765Z,0
2017-03-30T00:59:14.061Z,0
2017-03-30T01:00:14.053Z,0
2017-03-30T01:01:13.744Z,0
2017-03-30T01:02:14.037Z,0
2017-03-30T01:03:14.033Z,0
2017-03-30T01:04:14.024Z,0
2017-03-30T01:05:14.022Z,0
2017-03-30T01:06:13.708Z,0
2017-03-30T01:07:13.738Z,0
2017-03-30T01:08:13.703Z,0
2017-03-30T01:09:13.687Z,0
2017-03-30T01:10:13.685Z,0
2017-03-30T01:11:13.980Z,0
2017-03-30T01:12:13.976Z,0
2017-03-30T01:13:13.970Z,0
2017-03-30T01:14:13.965Z,0
2017-03-30T01:15:13.954Z,0
2017-03-30T01:16:13.945Z,0
2017-03-30T01:17:13.939Z,0
2017-03-30T01:18:13.934Z,0
2017-03-30T01:19:13.932Z,0
2017-03-30T01:20:13.922Z,0
2017-03-30T01:21:13.917Z,0
2017-03-30T01:22:13.908Z,0
2017-03-30T01:23:13.293Z,0
2017-03-30T01:24:13.893Z,0
2017-03-30T01:25:13.589Z,0
2017-03-30T01:26:13.574Z,0
2017-03-30T01:27:13.874Z,0
2017-03-30T01:28:13.866Z,0
2017-03-30T01:29:13.874Z,0
2017-03-30T01:30:13.856Z,0
2017-03-30T01:31:13.848Z,0
2017-03-30T01:32:13.843Z,0
2017-03-30T01:33:13.834Z,0
2017-03-30T01:34:13.836Z,0
2017-03-30T01:35:13.822Z,0
2017-03-30T01:36:13.513Z,0
2017-03-30T01:37:13.810Z,0
2017-03-30T01:38:13.799Z,0
2017-03-30T01:39:13.793Z,0
2017-03-30T01:40:13.793Z,0
2017-03-30T01:41:13.780Z,0
2017-03-30T01:42:13.773Z,0
2017-03-30T01:43:13.766Z,0
2017-03-30T01:44:13.759Z,0
2017-03-30T01:45:13.758Z,0
2017-03-30T01:46:13.476Z,0
2017-03-30T01:47:13.741Z,0
2017-03-30T01:48:13.729Z,0
2017-03-30T01:49:13.729Z,0
2017-03-30T01:50:13.140Z,0
2017-03-30T01:51:13.717Z,0
2017-03-30T01:52:13.705Z,0
2017-03-30T01:53:13.699Z,0
2017-03-30T01:54:13.694Z,0
2017-03-30T01:55:13.692Z,0
2017-03-30T01:56:13.681Z,0
2017-03-30T01:57:13.672Z,0
2017-03-30T01:58:13.703Z,0
2017-03-30T01:59:13.659Z,0
2017-03-30T02:00:13.043Z,0
2017-03-30T02:01:13.643Z,0
2017-03-30T02:02:13.032Z,0
2017-03-30T02:03:13.630Z,0
2017-03-30T02:04:13.623Z,0
2017-03-30T02:05:13.313Z,0
2017-03-30T02:06:13.610Z,0
2017-03-30T02:07:13.607Z,0
2017-03-30T02:08:13.295Z,0
2017-03-30T02:09:13.315Z,0
2017-03-30T02:10:13.583Z,0
2017-03-30T02:11:13.277Z,0
2017-03-30T02:12:13.265Z,0
2017-03-30T02:13:13.560Z,0
2017-03-30T02:14:13.560Z,0
2017-03-30T02:15:13.551Z,0
2017-03-30T02:16:13.545Z,0
2017-03-30T02:17:13.532Z,0
2017-03-30T02:18:13.223Z,0
2017-03-30T02:19:13.217Z,0
2017-03-30T02:20:13.210Z,0
2017-03-30T02:21:12.900Z,0
2017-03-30T02:22:13.199Z,0
2017-03-30T02:23:13.746Z,0
2017-03-30T02:24:13.181Z,0
2017-03-30T02:25:13.174Z,0
2017-03-30T02:26:13.468Z,0
2017-03-30T02:27:13.466Z,0
2017-03-30T02:28:12.848Z,0
2017-03-30T02:29:13.150Z,0
2017-03-30T02:30:13.148Z,0
2017-03-30T02:31:13.444Z,0
2017-03-30T02:32:13.132Z,0
2017-03-30T02:33:13.429Z,0
2017-03-30T02:34:13.113Z,0
2017-03-30T02:35:13.111Z,0
2017-03-30T02:36:13.098Z,0
2017-03-30T02:37:13.090Z,0
2017-03-30T02:38:13.389Z,0
2017-03-30T02:39:13.380Z,0
2017-03-30T02:40:13.377Z,0
2017-03-30T02:41:13.063Z,0
2017-03-30T02:42:13.060Z,0
2017-03-30T02:43:13.351Z,0
2017-03-30T02:44:13.347Z,0
2017-03-30T02:45:13.039Z,0
2017-03-30T02:46:13.338Z,0
2017-03-30T02:47:13.018Z,0
2017-03-30T02:48:13.011Z,0
2017-03-30T02:49:13.310Z,0
2017-03-30T02:50:12.703Z,0
2017-03-30T02:51:12.990Z,0
2017-03-30T02:52:13.290Z,0
2017-03-30T02:53:13.282Z,0
2017-03-30T02:54:13.275Z,0
2017-03-30T02:55:13.267Z,0
2017-03-30T02:56:12.957Z,0
2017-03-30T02:57:13.254Z,0
2017-03-30T02:58:13.247Z,0
2017-03-30T02:59:12.933Z,0
2017-03-30T03:00:13.231Z,0
2017-03-30T03:01:13.222Z,0
2017-03-30T03:02:12.913Z,0
2017-03-30T03:03:13.209Z,0
2017-03-30T03:04:12.904Z,0
2017-03-30T03:05:13.195Z,0
2017-03-30T03:06:12.883Z,0
2017-03-30T03:07:12.885Z,0
2017-03-30T03:08:12.869Z,0
2017-03-30T03:09:13.165Z,0
2017-03-30T03:10:13.157Z,0
2017-03-30T03:11:13.151Z,0
2017-03-30T03:12:13.143Z,0
2017-03-30T03:13:13.136Z,0
2017-03-30T03:14:12.829Z,0
2017-03-30T03:15:13.124Z,0
2017-03-30T03:16:13.112Z,0
2017-03-30T03:17:13.112Z,0
2017-03-30T03:18:13.107Z,0
2017-03-30T03:19:13.095Z,0
2017-03-30T03:20:13.086Z,0
2017-03-30T03:21:13.079Z,0
2017-03-30T03:22:12.773Z,0
2017-03-30T03:23:13.063Z,0
2017-03-30T03:24:13.058Z,0
2017-03-30T03:25:13.053Z,0
2017-03-30T03:26:12.743Z,0
2017-03-30T03:27:12.730Z,0
2017-03-30T03:28:13.027Z,0
2017-03-30T03:29:13.019Z,0
2017-03-30T03:30:13.015Z,0
2017-03-30T03:31:13.007Z,0
2017-03-30T03:32:12.696Z,0
2017-03-30T03:33:12.991Z,0
2017-03-30T03:34:12.995Z,0
2017-03-30T03:35:12.672Z,0
2017-03-30T03:36:12.670Z,0
2017-03-30T03:37:12.964Z,0
2017-03-30T03:38:12.351Z,0
2017-03-30T03:39:12.946Z,0
2017-03-30T03:40:12.338Z,0
2017-03-30T03:41:12.934Z,0
2017-03-30T03:42:12.927Z,0
2017-03-30T03:43:12.921Z,0
2017-03-30T03:44:12.608Z,0
2017-03-30T03:45:12.910Z,0
2017-03-30T03:46:12.903Z,0
2017-03-30T03:47:12.897Z,0
2017-03-30T03:48:12.887Z,0
2017-03-30T03:49:12.886Z,0
2017-03-30T03:50:12.873Z,0
2017-03-30T03:51:12.869Z,0
2017-03-30T03:52:12.252Z,0
2017-03-30T03:53:12.851Z,0
2017-03-30T03:54:12.850Z,0
2017-03-30T03:55:12.836Z,0
2017-03-30T03:56:12.534Z,0
2017-03-30T03:57:12.520Z,0
2017-03-30T03:58:12.824Z,0
2017-03-30T03:59:12.812Z,0
2017-03-30T04:00:12.811Z,0
2017-03-30T04:01:12.795Z,0
2017-03-30T04:02:12.486Z,0
2017-03-30T04:03:12.782Z,0
2017-03-30T04:04:12.474Z,0
2017-03-30T04:05:12.768Z,0
2017-03-30T04:06:12.459Z,0
2017-03-30T04:07:12.756Z,0
2017-03-30T04:08:12.760Z,0
2017-03-30T04:09:12.439Z,0
2017-03-30T04:10:12.127Z,0
2017-03-30T04:11:12.729Z,0
2017-03-30T04:12:12.719Z,0
2017-03-30T04:13:12.113Z,0
2017-03-30T04:14:12.705Z,0
2017-03-30T04:15:12.441Z,0
2017-03-30T04:16:12.695Z,0
2017-03-30T04:17:12.687Z,0
2017-03-30T04:18:12.680Z,0
2017-03-30T04:19:12.369Z,0
2017-03-30T04:20:12.363Z,0
2017-03-30T04:21:12.679Z,0
2017-03-30T04:22:12.049Z,0
2017-03-30T04:23:12.644Z,0
2017-03-30T04:24:12.635Z,0
2017-03-30T04:25:12.330Z,0
2017-03-30T04:26:12.321Z,0
2017-03-30T04:27:12.621Z,0
2017-03-30T04:28:12.002Z,0
2017-03-30T04:29:12.299Z,0
2017-03-30T04:30:12.293Z,0
2017-03-30T04:31:12.288Z,0
2017-03-30T04:32:12.584Z,0
2017-03-30T04:33:12.579Z,0
2017-03-30T04:34:12.272Z,0
2017-03-30T04:35:12.567Z,0
2017-03-30T04:36:12.559Z,0
2017-03-30T04:37:12.250Z,0
2017-03-30T04:38:12.541Z,0
2017-03-30T04:39:12.236Z,0
2017-03-30T04:40:12.532Z,0
2017-03-30T04:41:12.256Z,0
2017-03-30T04:42:12.215Z,0
2017-03-30T04:43:12.508Z,0
2017-03-30T04:44:12.200Z,0
2017-03-30T04:45:12.191Z,0
2017-03-30T04:46:12.490Z,0
2017-03-30T04:47:12.176Z,0
2017-03-30T04:48:12.170Z,0
2017-03-30T04:49:11.865Z,0
2017-03-30T04:50:12.164Z,0
2017-03-30T04:51:12.155Z,0
2017-03-30T04:52:12.150Z,0
2017-03-30T04:53:12.443Z,0
2017-03-30T04:54:12.437Z,0
2017-03-30T04:55:12.431Z,5
2017-03-30T04:56:12.425Z,0
2017-03-30T04:57:12.417Z,5
2017-03-30T04:58:12.405Z,5
2017-03-30T04:59:12.404Z,5
2017-03-30T05:00:12.094Z,5
2017-03-30T05:01:12.389Z,5
2017-03-30T05:02:12.401Z,5
2017-03-30T05:03:12.377Z,5
2017-03-30T05:04:12.063Z,10
2017-03-30T05:05:12.063Z,10
2017-03-30T05:06:11.748Z,10
2017-03-30T05:07:12.348Z,10
2017-03-30T05:08:12.342Z,10
2017-03-30T05:09:12.335Z,10
2017-03-30T05:10:12.024Z,10
2017-03-30T05:11:12.328Z,10
2017-03-30T05:12:12.322Z,10
2017-03-30T05:13:12.307Z,10
2017-03-30T05:14:12.332Z,10
2017-03-30T05:15:12.297Z,10
2017-03-30T05:16:12.287Z,10
2017-03-30T05:17:12.285Z,10
2017-03-30T05:18:12.280Z,10
2017-03-30T05:19:12.269Z,15
2017-03-30T05:20:12.259Z,15
2017-03-30T05:21:12.257Z,15
2017-03-30T05:22:11.647Z,15
2017-03-30T05:23:12.243Z,15
2017-03-30T05:24:12.234Z,20
2017-03-30T05:25:12.226Z,20
2017-03-30T05:26:11.919Z,20
2017-03-30T05:27:11.909Z,20
2017-03-30T05:28:12.206Z,20
2017-03-30T05:29:12.206Z,25
2017-03-30T05:30:12.202Z,25
2017-03-30T05:31:12.186Z,30
2017-03-30T05:32:12.185Z,30
2017-03-30T05:33:12.174Z,30
2017-03-30T05:34:12.170Z,30
2017-03-30T05:35:11.859Z,30
2017-03-30T05:36:12.153Z,30
2017-03-30T05:37:11.844Z,35
2017-03-30T05:38:12.137Z,30
2017-03-30T05:39:11.830Z,30
2017-03-30T05:40:12.129Z,35
2017-03-30T05:41:11.514Z,35
2017-03-30T05:42:12.118Z,35
2017-03-30T05:43:12.115Z,30
2017-03-30T05:44:11.494Z,30
2017-03-30T05:45:11.792Z,30
2017-03-30T05:46:11.486Z,35
2017-03-30T05:47:12.082Z,35
2017-03-30T05:48:12.078Z,35
2017-03-30T05:49:12.065Z,40
2017-03-30T05:50:12.059Z,40
2017-03-30T05:51:12.054Z,40
2017-03-30T05:52:12.058Z,40
2017-03-30T05:53:12.038Z,45
2017-03-30T05:54:11.730Z,45
2017-03-30T05:55:11.722Z,45
2017-03-30T05:56:12.024Z,45
2017-03-30T05:57:12.012Z,45
2017-03-30T05:58:12.023Z,50
2017-03-30T05:59:12.003Z,55
2017-03-30T06:00:11.997Z,55
2017-03-30T06:01:11.994Z,55
2017-03-30T06:02:11.675Z,55
2017-03-30T06:03:11.977Z,60
2017-03-30T06:04:12.001Z,60
2017-03-30T06:05:11.962Z,60
2017-03-30T06:06:11.958Z,65
2017-03-30T06:07:11.950Z,70
2017-03-30T06:08:11.944Z,70
2017-03-30T06:09:11.936Z,65
2017-03-30T06:10:11.626Z,70
2017-03-30T06:11:11.920Z,70
2017-03-30T06:12:11.914Z,70
2017-03-30T06:13:11.923Z,70
2017-03-30T06:14:11.601Z,70
2017-03-30T06:15:11.596Z,70
2017-03-30T06:16:11.586Z,70
2017-03-30T06:17:11.906Z,70
2017-03-30T06:18:11.879Z,70
2017-03-30T06:19:11.874Z,70
2017-03-30T06:20:11.562Z,70
2017-03-30T06:21:11.556Z,75
2017-03-30T06:22:11.558Z,75
2017-03-30T06:23:11.860Z,75
2017-03-30T06:24:11.837Z,75
2017-03-30T06:25:11.530Z,75
2017-03-30T06:26:11.523Z,75
2017-03-30T06:27:11.516Z,80
2017-03-30T06:28:11.814Z,80
2017-03-30T06:29:11.507Z,85
2017-03-30T06:30:11.499Z,100
2017-03-30T06:31:11.801Z,115
2017-03-30T06:32:11.794Z,125
2017-03-30T06:33:11.481Z,120
2017-03-30T06:34:11.778Z,115
2017-03-30T06:35:11.775Z,105
2017-03-30T06:36:11.768Z,100
2017-03-30T06:37:11.762Z,105
2017-03-30T06:38:11.750Z,110
2017-03-30T06:39:11.752Z,105
2017-03-30T06:40:11.439Z,110
2017-03-30T06:41:11.733Z,110
2017-03-30T06:42:11.739Z,110
2017-03-30T06:43:11.727Z,105
2017-03-30T06:44:11.713Z,105
2017-03-30T06:45:11.721Z,105
2017-03-30T06:46:11.703Z,105
2017-03-30T06:47:11.703Z,105
2017-03-30T06:48:11.694Z,100
2017-03-30T06:49:11.385Z,100
2017-03-30T06:50:11.388Z,100
2017-03-30T06:51:11.673Z,90
2017-03-30T06:52:11.675Z,90
2017-03-30T06:53:11.664Z,85
2017-03-30T06:54:11.352Z,85
2017-03-30T06:55:11.658Z,85
2017-03-30T06:56:11.644Z,80
2017-03-30T06:57:11.639Z,75
2017-03-30T06:58:11.637Z,65
2017-03-30T06:59:11.627Z,70
2017-03-30T07:00:11.626Z,70
2017-03-30T07:01:11.621Z,70
2017-03-30T07:02:11.616Z,70
2017-03-30T07:03:11.607Z,75
2017-03-30T07:04:11.301Z,75
2017-03-30T07:05:11.597Z,75
2017-03-30T07:06:11.601Z,80
2017-03-30T07:07:11.589Z,95
2017-03-30T07:08:11.276Z,80
2017-03-30T07:09:11.582Z,85
2017-03-30T07:10:11.570Z,85
2017-03-30T07:11:11.259Z,75
2017-03-30T07:12:11.558Z,70
2017-03-30T07:13:11.547Z,80
2017-03-30T07:14:11.239Z,80
2017-03-30T07:15:11.538Z,80
2017-03-30T07:16:11.230Z,85
2017-03-30T07:17:11.525Z,90
2017-03-30T07:18:11.522Z,90
2017-03-30T07:19:11.517Z,80
2017-03-30T07:20:11.512Z,80
2017-03-30T07:21:11.504Z,80
2017-03-30T07:22:11.504Z,80
2017-03-30T07:23:11.493Z,85
2017-03-30T07:24:11.496Z,90
2017-03-30T07:25:11.177Z,100
2017-03-30T07:26:11.483Z,105
2017-03-30T07:27:11.480Z,115
2017-03-30T07:28:11.465Z,115
2017-03-30T07:29:11.459Z,120
2017-03-30T07:30:11.458Z,120
2017-03-30T07:31:11.449Z,130
2017-03-30T07:32:10.837Z,135
2017-03-30T07:33:11.435Z,145
2017-03-30T07:34:11.680Z,140
2017-03-30T07:35:11.427Z,155
2017-03-30T07:36:11.426Z,155
2017-03-30T07:37:11.419Z,155
2017-03-30T07:38:11.410Z,155
2017-03-30T07:39:11.102Z,160
2017-03-30T07:40:11.094Z,170
2017-03-30T07:41:11.094Z,165
2017-03-30T07:42:11.388Z,155
2017-03-30T07:43:11.382Z,150
2017-03-30T07:44:11.379Z,165
2017-03-30T07:45:11.379Z,170
2017-03-30T07:46:11.367Z,170
2017-03-30T07:47:11.063Z,185
2017-03-30T07:48:11.357Z,205
2017-03-30T07:49:11.353Z,205
2017-03-30T07:50:11.347Z,200
2017-03-30T07:51:11.347Z,185
2017-03-30T07:52:11.339Z,190
2017-03-30T07:53:11.335Z,185
2017-03-30T07:54:11.024Z,185
2017-03-30T07:55:11.324Z,180
2017-03-30T07:56:11.328Z,180
2017-03-30T07:57:11.313Z,180
2017-03-30T07:58:11.312Z,185
2017-03-30T07:59:11.301Z,195
2017-03-30T08:00:10.997Z,205
2017-03-30T08:01:10.686Z,210
2017-03-30T08:02:11.297Z,210
2017-03-30T08:03:11.279Z,230
2017-03-30T08:04:11.276Z,255
2017-03-30T08:05:11.275Z,285
2017-03-30T08:06:11.272Z,295
2017-03-30T08:07:10.961Z,290
2017-03-30T08:08:11.262Z,285
2017-03-30T08:09:11.256Z,280
2017-03-30T08:10:11.253Z,275
2017-03-30T08:11:11.246Z,270
2017-03-30T08:12:11.243Z,270
2017-03-30T08:13:11.245Z,265
2017-03-30T08:14:11.234Z,260
2017-03-30T08:15:11.229Z,265
2017-03-30T08:16:11.225Z,275
2017-03-30T08:17:10.612Z,295
2017-03-30T08:18:10.605Z,310
2017-03-30T08:19:11.211Z,325
2017-03-30T08:20:10.908Z,330
2017-03-30T08:21:11.203Z,330
2017-03-30T08:22:10.898Z,320
2017-03-30T08:23:11.195Z,305
2017-03-30T08:24:11.196Z,285
2017-03-30T08:25:11.185Z,270
2017-03-30T08:26:11.180Z,270
2017-03-30T08:27:11.181Z,280
2017-03-30T08:28:10.874Z,295
2017-03-30T08:30:13.592Z,285
2017-03-30T08:31:10.865Z,275
2017-03-30T08:32:10.861Z,280
2017-03-30T08:33:11.155Z,305
2017-03-30T08:34:11.150Z,310
2017-03-30T08:35:10.850Z,290
2017-03-30T08:36:11.497Z,290
2017-03-30T08:37:11.139Z,295
2017-03-30T08:38:11.139Z,280
2017-03-30T08:39:11.131Z,280
2017-03-30T08:40:11.134Z,285
2017-03-30T08:41:10.825Z,270
2017-03-30T08:42:11.122Z,250
2017-03-30T08:43:11.118Z,235
2017-03-30T08:44:11.120Z,230
2017-03-30T08:45:11.115Z,225
2017-03-30T08:46:11.110Z,250
2017-03-30T08:47:10.805Z,310
2017-03-30T08:48:11.106Z,355
2017-03-30T08:49:10.798Z,350
2017-03-30T08:50:10.795Z,345
2017-03-30T08:51:11.093Z,345
2017-03-30T08:52:11.092Z,335
2017-03-30T08:54:11.286Z,295
2017-03-30T08:56:11.075Z,245
2017-03-30T08:57:10.465Z,225
2017-03-30T08:58:11.068Z,215
2017-03-30T08:59:10.762Z,220
2017-03-30T09:00:10.454Z,220
2017-03-30T09:01:11.058Z,215
2017-03-30T09:02:20.147Z,210
2017-03-30T09:03:11.058Z,205
2017-03-30T09:04:10.747Z,190
2017-03-30T09:05:11.046Z,175
2017-03-30T09:06:11.039Z,170
2017-03-30T09:07:10.985Z,165
2017-03-30T09:08:10.726Z,170
2017-03-30T09:09:11.026Z,155
2017-03-30T09:10:11.024Z,145
2017-03-30T09:11:11.021Z,140
2017-03-30T09:12:10.713Z,150
2017-03-30T09:13:11.010Z,150
2017-03-30T09:14:11.010Z,140
2017-03-30T09:15:10.428Z,135
2017-03-30T09:16:10.698Z,130
2017-03-30T09:17:11.001Z,130
2017-03-30T09:18:11.364Z,125
2017-03-30T09:19:10.993Z,125
2017-03-30T09:20:10.081Z,125
2017-03-30T09:21:10.681Z,125
2017-03-30T09:22:10.681Z,135
2017-03-30T09:23:10.675Z,140
2017-03-30T09:24:10.669Z,150
2017-03-30T09:25:10.966Z,165
2017-03-30T09:26:10.967Z,170
2017-03-30T09:27:10.961Z,165
2017-03-30T09:28:10.658Z,170
2017-03-30T09:29:10.951Z,175
2017-03-30T09:30:10.645Z,175
2017-03-30T09:31:10.945Z,180
2017-03-30T09:32:10.942Z,180
2017-03-30T09:33:10.949Z,185
2017-03-30T09:34:10.327Z,190
2017-03-30T09:35:10.625Z,185
2017-03-30T09:36:10.628Z,180
2017-03-30T09:37:10.925Z,180
2017-03-30T09:38:10.617Z,195
2017-03-30T09:39:10.912Z,205
2017-03-30T09:40:10.935Z,210
2017-03-30T09:41:10.300Z,215
2017-03-30T09:42:10.295Z,225
2017-03-30T09:43:10.594Z,255
2017-03-30T09:44:10.893Z,305
2017-03-30T09:45:10.587Z,380
2017-03-30T09:46:10.885Z,460
2017-03-30T09:47:10.991Z,465
2017-03-30T09:48:10.275Z,425
2017-03-30T09:49:10.572Z,385
2017-03-30T09:50:10.569Z,345
2017-03-30T09:51:10.562Z,350
2017-03-30T09:52:10.866Z,375
2017-03-30T09:53:10.559Z,390
2017-03-30T09:54:10.555Z,385
2017-03-30T09:55:10.556Z,370
2017-03-30T09:56:10.553Z,375
2017-03-30T09:57:10.551Z,410
2017-03-30T09:58:10.540Z,465
2017-03-30T09:59:10.840Z,510
2017-03-30T10:00:10.872Z,530
2017-03-30T10:01:10.832Z,545
2017-03-30T10:02:10.530Z,565
2017-03-30T10:03:10.833Z,580
2017-03-30T10:04:10.830Z,595
2017-03-30T10:05:10.516Z,610
2017-03-30T10:06:10.823Z,645
2017-03-30T10:07:10.822Z,685
2017-03-30T10:08:10.817Z,690
2017-03-30T10:09:10.842Z,725
2017-03-30T10:11:15.661Z,725
2017-03-30T10:12:12.019Z,710
2017-03-30T10:13:10.191Z,705
2017-03-30T10:14:10.196Z,720
2017-03-30T10:15:10.799Z,755
2017-03-30T10:16:10.193Z,775
2017-03-30T10:17:10.795Z,780
2017-03-30T10:18:10.493Z,770
2017-03-30T10:19:10.791Z,815
2017-03-30T10:20:10.824Z,785
2017-03-30T10:21:10.787Z,740
2017-03-30T10:22:10.791Z,705
2017-03-30T10:23:10.789Z,710
2017-03-30T10:24:10.481Z,710
2017-03-30T10:25:10.789Z,700
2017-03-30T10:26:10.489Z,715
2017-03-30T10:27:10.786Z,715
2017-03-30T10:28:10.181Z,725
2017-03-30T10:29:10.482Z,710
2017-03-30T10:30:10.788Z,665
2017-03-30T10:31:10.786Z,640
2017-03-30T10:32:10.190Z,600
2017-03-30T10:33:10.787Z,600
2017-03-30T10:34:10.787Z,610
2017-03-30T10:35:10.793Z,645
2017-03-30T10:36:10.795Z,655
2017-03-30T10:37:10.798Z,655
2017-03-30T10:38:10.826Z,630
2017-03-30T10:39:10.491Z,610
2017-03-30T10:40:10.489Z,565
2017-03-30T10:41:10.795Z,535
2017-03-30T10:42:10.493Z,515
2017-03-30T10:43:10.799Z,525
2017-03-30T10:44:10.802Z,540
2017-03-30T10:45:10.795Z,595
2017-03-30T10:46:10.832Z,645
2017-03-30T10:47:10.801Z,680
2017-03-30T10:48:10.504Z,695
2017-03-30T10:49:10.801Z,685
2017-03-30T10:50:10.500Z,660
2017-03-30T10:51:10.808Z,635
2017-03-30T10:52:10.807Z,650
2017-03-30T10:53:10.805Z,665
2017-03-30T10:54:10.806Z,690
2017-03-30T10:55:10.205Z,715
2017-03-30T10:56:10.512Z,695
2017-03-30T10:57:10.810Z,650
2017-03-30T10:58:10.814Z,635
2017-03-30T10:59:10.817Z,615
2017-03-30T11:00:10.536Z,610
2017-03-30T11:01:10.523Z,625
2017-03-30T11:02:10.821Z,655
2017-03-30T11:03:10.822Z,660
2017-03-30T11:04:10.520Z,660
2017-03-30T11:05:10.827Z,635
2017-03-30T11:06:10.533Z,600
2017-03-30T11:07:10.832Z,585
2017-03-30T11:08:10.528Z,520
2017-03-30T11:09:10.836Z,520
2017-03-30T11:10:10.835Z,510
2017-03-30T11:11:10.537Z,505
2017-03-30T11:12:10.841Z,555
2017-03-30T11:13:10.540Z,565
2017-03-30T11:14:10.852Z,565
2017-03-30T11:16:10.850Z,535
2017-03-30T11:17:13.578Z,550
2017-03-30T11:18:13.279Z,495
2017-03-30T11:19:10.852Z,485
2017-03-30T11:20:10.861Z,480
2017-03-30T11:21:10.556Z,500
2017-03-30T11:22:10.261Z,490
2017-03-30T11:23:10.857Z,475
2017-03-30T11:24:10.870Z,500
2017-03-30T11:25:10.557Z,600
2017-03-30T11:26:10.867Z,675
2017-03-30T11:27:10.867Z,620
2017-03-30T11:28:10.866Z,565
2017-03-30T11:29:10.872Z,545
2017-03-30T11:30:10.871Z,605
2017-03-30T11:31:10.568Z,605
2017-03-30T11:32:10.273Z,560
2017-03-30T11:33:10.874Z,495
2017-03-30T11:34:10.580Z,440
2017-03-30T11:35:10.883Z,370
2017-03-30T11:36:10.879Z,330
2017-03-30T11:37:10.582Z,360
2017-03-30T11:38:10.885Z,455
2017-03-30T11:39:10.887Z,510
2017-03-30T11:40:10.592Z,445
2017-03-30T11:41:10.888Z,395
2017-03-30T11:42:10.892Z,395
2017-03-30T11:43:10.892Z,330
2017-03-30T11:44:10.894Z,310
2017-03-30T11:45:10.591Z,300
2017-03-30T11:46:10.909Z,270
2017-03-30T11:47:10.600Z,290
2017-03-30T11:48:10.594Z,420
2017-03-30T11:49:10.894Z,520
2017-03-30T11:50:10.897Z,545
2017-03-30T11:51:10.899Z,505
2017-03-30T11:52:10.598Z,465
2017-03-30T11:53:10.600Z,435
2017-03-30T11:54:10.595Z,370
2017-03-30T11:55:10.905Z,355
2017-03-30T11:56:10.902Z,335
2017-03-30T11:57:10.904Z,335
2017-03-30T11:58:10.904Z,370
2017-03-30T11:59:10.909Z,405
2017-03-30T12:00:10.601Z,435
2017-03-30T12:01:10.908Z,430
2017-03-30T12:02:10.903Z,425
2017-03-30T12:03:10.905Z,375
2017-03-30T12:04:10.299Z,355
2017-03-30T12:05:10.912Z,395
2017-03-30T12:06:10.910Z,455
2017-03-30T12:07:10.606Z,505
2017-03-30T12:08:10.906Z,510
2017-03-30T12:09:10.907Z,500
2017-03-30T12:10:10.907Z,535
2017-03-30T12:11:10.912Z,490
2017-03-30T12:12:10.609Z,525
2017-03-30T12:13:10.603Z,625
2017-03-30T12:14:10.603Z,655
2017-03-30T12:15:10.303Z,615
2017-03-30T12:16:10.606Z,605
2017-03-30T12:17:10.909Z,620
2017-03-30T12:18:10.909Z,615
2017-03-30T12:19:10.915Z,605
2017-03-30T12:20:10.911Z,590
2017-03-30T12:21:10.914Z,585
2017-03-30T12:22:10.612Z,590
2017-03-30T12:23:10.921Z,500
2017-03-30T12:24:10.611Z,480
2017-03-30T12:25:10.615Z,465
2017-03-30T12:26:10.918Z,395
2017-03-30T12:27:10.616Z,325
2017-03-30T12:28:10.919Z,295
2017-03-30T12:29:10.920Z,290
2017-03-30T12:30:10.619Z,275
2017-03-30T12:31:10.925Z,265
2017-03-30T12:32:10.621Z,275
2017-03-30T12:33:10.926Z,335
2017-03-30T12:34:10.923Z,395
2017-03-30T12:35:10.928Z,355
2017-03-30T12:36:10.928Z,305
2017-03-30T12:37:10.928Z,295
2017-03-30T12:38:10.623Z,305
2017-03-30T12:39:10.630Z,280
2017-03-30T12:40:10.934Z,265
2017-03-30T12:41:10.633Z,260
2017-03-30T12:42:10.631Z,250
2017-03-30T12:43:10.939Z,215
2017-03-30T12:44:10.938Z,205
2017-03-30T12:45:10.935Z,240
2017-03-30T12:46:10.629Z,250
2017-03-30T12:47:10.662Z,285
2017-03-30T12:48:10.935Z,355
2017-03-30T12:49:10.933Z,295
2017-03-30T12:50:10.632Z,275
2017-03-30T12:51:10.936Z,330
2017-03-30T12:52:10.632Z,335
2017-03-30T12:53:10.936Z,360
2017-03-30T12:54:10.933Z,455
2017-03-30T12:55:10.930Z,500
2017-03-30T12:56:10.935Z,520
2017-03-30T12:57:10.934Z,525
2017-03-30T12:58:10.936Z,520
2017-03-30T12:59:10.934Z,560
2017-03-30T13:00:10.324Z,580
2017-03-30T13:01:10.932Z,555
2017-03-30T13:02:10.625Z,530
2017-03-30T13:03:10.940Z,505
2017-03-30T13:04:10.928Z,525
2017-03-30T13:05:10.934Z,510
2017-03-30T13:06:10.628Z,505
2017-03-30T13:07:11.240Z,515
2017-03-30T13:08:11.136Z,520
2017-03-30T13:09:10.931Z,535
2017-03-30T13:10:10.630Z,530
2017-03-30T13:11:10.931Z,525
2017-03-30T13:12:10.941Z,510
2017-03-30T13:13:10.932Z,485
2017-03-30T13:14:10.934Z,480
2017-03-30T13:15:10.933Z,455
2017-03-30T13:16:10.933Z,430
2017-03-30T13:17:10.933Z,420
2017-03-30T13:18:10.937Z,410
2017-03-30T13:19:10.942Z,400
2017-03-30T13:20:10.941Z,360
2017-03-30T13:21:10.335Z,335
2017-03-30T13:22:10.369Z,300
2017-03-30T13:23:10.937Z,285
2017-03-30T13:24:10.643Z,275
2017-03-30T13:25:10.944Z,255
2017-03-30T13:26:10.944Z,255
2017-03-30T13:27:10.939Z,265
2017-03-30T13:28:10.638Z,275
2017-03-30T13:29:10.640Z,285
2017-03-30T13:30:10.642Z,295
2017-03-30T13:31:10.950Z,300
2017-03-30T13:32:10.636Z,305
2017-03-30T13:33:10.944Z,340
2017-03-30T13:34:10.946Z,345
2017-03-30T13:35:10.943Z,340
2017-03-30T13:36:10.642Z,335
2017-03-30T13:37:10.636Z,325
2017-03-30T13:38:10.940Z,320
2017-03-30T13:39:10.944Z,310
2017-03-30T13:40:10.635Z,305
2017-03-30T13:41:10.949Z,280
2017-03-30T13:42:10.934Z,260
2017-03-30T13:43:10.940Z,255
2017-03-30T13:44:10.933Z,250
2017-03-30T13:45:10.638Z,240
2017-03-30T13:46:10.634Z,235
2017-03-30T13:47:10.940Z,240
2017-03-30T13:48:10.948Z,245
2017-03-30T13:49:10.931Z,245
2017-03-30T13:50:10.938Z,245
2017-03-30T13:51:10.936Z,255
2017-03-30T13:52:10.932Z,280
2017-03-30T13:53:10.935Z,315
2017-03-30T13:54:10.931Z,280
2017-03-30T13:55:10.925Z,250
2017-03-30T13:56:10.928Z,240
2017-03-30T13:57:10.629Z,235
2017-03-30T13:58:10.929Z,240
2017-03-30T13:59:10.924Z,255
2017-03-30T14:00:10.922Z,260
2017-03-30T14:01:10.919Z,260
2017-03-30T14:02:10.922Z,275
2017-03-30T14:03:10.922Z,275
2017-03-30T14:04:10.918Z,275
2017-03-30T14:05:10.918Z,275
2017-03-30T14:06:10.626Z,270
2017-03-30T14:07:10.910Z,285
2017-03-30T14:08:10.938Z,310
2017-03-30T14:09:10.908Z,360
2017-03-30T14:10:09.996Z,400
2017-03-30T14:11:10.906Z,365
2017-03-30T14:12:10.907Z,370
2017-03-30T14:13:10.906Z,435
2017-03-30T14:14:10.904Z,450
2017-03-30T14:15:10.902Z,410
2017-03-30T14:16:10.293Z,385